sensor_id;sensor_type;location;lat;lon;timestamp;P1;durP1;ratioP1;P2;durP2;ratioP2
908;SDS011;441;51.192;6.788;2023-02-18T00:00:28;17.77;;;17.27;;
908;SDS011;441;51.192;6.788;2023-02-18T00:02:55;18.30;;;17.80;;
908;SDS011;441;51.192;6.788;2023-02-18T00:05:22;17.70;;;17.20;;
908;SDS011;441;51.192;6.788;2023-02-18T00:07:49;17.73;;;17.23;;
908;SDS011;441;51.192;6.788;2023-02-18T00:10:16;17.50;;;17.00;;
908;SDS011;441;51.192;6.788;2023-02-18T00:12:43;17.40;;;16.90;;
908;SDS011;441;51.192;6.788;2023-02-18T00:15:11;17.80;;;17.20;;
908;SDS011;441;51.192;6.788;2023-02-18T00:17:38;17.20;;;16.70;;
908;SDS011;441;51.192;6.788;2023-02-18T00:20:05;17.10;;;16.60;;
908;SDS011;441;51.192;6.788;2023-02-18T00:22:33;18.80;;;18.20;;
908;SDS011;441;51.192;6.788;2023-02-18T00:25:00;18.40;;;17.90;;
908;SDS011;441;51.192;6.788;2023-02-18T00:27:27;18.87;;;18.27;;
908;SDS011;441;51.192;6.788;2023-02-18T00:29:53;18.80;;;18.20;;
908;SDS011;441;51.192;6.788;2023-02-18T00:32:22;17.00;;;16.50;;
908;SDS011;441;51.192;6.788;2023-02-18T00:34:49;24.00;;;23.30;;
908;SDS011;441;51.192;6.788;2023-02-18T00:37:15;23.77;;;23.07;;
908;SDS011;441;51.192;6.788;2023-02-18T00:39:42;23.90;;;23.20;;
908;SDS011;441;51.192;6.788;2023-02-18T00:42:09;22.70;;;22.00;;
908;SDS011;441;51.192;6.788;2023-02-18T00:44:36;23.23;;;22.53;;
908;SDS011;441;51.192;6.788;2023-02-18T00:47:03;24.20;;;23.50;;
908;SDS011;441;51.192;6.788;2023-02-18T00:49:31;23.20;;;22.40;;
908;SDS011;441;51.192;6.788;2023-02-18T00:51:58;17.80;;;17.30;;
908;SDS011;441;51.192;6.788;2023-02-18T00:54:25;18.87;;;18.27;;
908;SDS011;441;51.192;6.788;2023-02-18T00:56:51;18.40;;;17.80;;
908;SDS011;441;51.192;6.788;2023-02-18T00:59:18;17.93;;;17.43;;
908;SDS011;441;51.192;6.788;2023-02-18T01:01:45;18.83;;;18.23;;
908;SDS011;441;51.192;6.788;2023-02-18T01:04:12;18.30;;;17.80;;
908;SDS011;441;51.192;6.788;2023-02-18T01:06:40;17.80;;;17.30;;
908;SDS011;441;51.192;6.788;2023-02-18T01:09:07;18.23;;;17.73;;
908;SDS011;441;51.192;6.788;2023-02-18T01:11:35;19.13;;;18.53;;
908;SDS011;441;51.192;6.788;2023-02-18T01:14:02;18.43;;;17.83;;
908;SDS011;441;51.192;6.788;2023-02-18T01:16:29;18.73;;;18.13;;
908;SDS011;441;51.192;6.788;2023-02-18T01:18:55;18.53;;;17.93;;
908;SDS011;441;51.192;6.788;2023-02-18T01:21:22;18.47;;;17.87;;
908;SDS011;441;51.192;6.788;2023-02-18T01:23:50;17.50;;;17.00;;
908;SDS011;441;51.192;6.788;2023-02-18T01:26:17;19.73;;;19.13;;
908;SDS011;441;51.192;6.788;2023-02-18T01:28:44;19.63;;;19.03;;
908;SDS011;441;51.192;6.788;2023-02-18T01:31:12;18.67;;;18.07;;
908;SDS011;441;51.192;6.788;2023-02-18T01:33:39;18.27;;;17.67;;
908;SDS011;441;51.192;6.788;2023-02-18T01:36:06;19.20;;;18.60;;
908;SDS011;441;51.192;6.788;2023-02-18T01:38:34;18.60;;;18.00;;
908;SDS011;441;51.192;6.788;2023-02-18T01:41:02;17.80;;;17.30;;
908;SDS011;441;51.192;6.788;2023-02-18T01:43:30;17.80;;;17.20;;
908;SDS011;441;51.192;6.788;2023-02-18T01:46:11;17.67;;;17.17;;
908;SDS011;441;51.192;6.788;2023-02-18T01:48:40;18.27;;;17.60;;
908;SDS011;441;51.192;6.788;2023-02-18T01:51:10;18.57;;;17.97;;
908;SDS011;441;51.192;6.788;2023-02-18T01:53:40;17.60;;;17.10;;
908;SDS011;441;51.192;6.788;2023-02-18T01:56:15;18.50;;;17.80;;
908;SDS011;441;51.192;6.788;2023-02-18T01:58:47;17.97;;;17.47;;
908;SDS011;441;51.192;6.788;2023-02-18T02:01:15;17.90;;;17.30;;
908;SDS011;441;51.192;6.788;2023-02-18T02:03:42;18.53;;;17.93;;
908;SDS011;441;51.192;6.788;2023-02-18T02:06:11;18.10;;;17.40;;
908;SDS011;441;51.192;6.788;2023-02-18T02:08:41;17.63;;;17.13;;
908;SDS011;441;51.192;6.788;2023-02-18T02:11:14;18.07;;;17.53;;
908;SDS011;441;51.192;6.788;2023-02-18T02:16:51;18.33;;;17.73;;
908;SDS011;441;51.192;6.788;2023-02-18T02:22:29;17.80;;;17.30;;
908;SDS011;441;51.192;6.788;2023-02-18T02:25:39;17.10;;;16.60;;
908;SDS011;441;51.192;6.788;2023-02-18T02:31:42;17.23;;;16.73;;
908;SDS011;441;51.192;6.788;2023-02-18T02:34:34;17.00;;;16.50;;
908;SDS011;441;51.192;6.788;2023-02-18T02:37:13;18.00;;;17.50;;
908;SDS011;441;51.192;6.788;2023-02-18T02:39:51;18.30;;;17.80;;
908;SDS011;441;51.192;6.788;2023-02-18T02:42:28;17.73;;;17.23;;
908;SDS011;441;51.192;6.788;2023-02-18T02:45:06;18.13;;;17.57;;
908;SDS011;441;51.192;6.788;2023-02-18T02:47:43;17.70;;;17.20;;
908;SDS011;441;51.192;6.788;2023-02-18T02:50:16;18.30;;;17.70;;
908;SDS011;441;51.192;6.788;2023-02-18T02:52:53;18.70;;;18.13;;
908;SDS011;441;51.192;6.788;2023-02-18T02:55:24;17.80;;;17.30;;
908;SDS011;441;51.192;6.788;2023-02-18T02:57:52;16.93;;;16.43;;
908;SDS011;441;51.192;6.788;2023-02-18T03:00:20;18.43;;;17.83;;
908;SDS011;441;51.192;6.788;2023-02-18T03:02:54;19.30;;;18.70;;
908;SDS011;441;51.192;6.788;2023-02-18T03:05:46;17.63;;;17.13;;
908;SDS011;441;51.192;6.788;2023-02-18T03:08:24;18.70;;;18.10;;
908;SDS011;441;51.192;6.788;2023-02-18T03:11:01;19.10;;;18.47;;
908;SDS011;441;51.192;6.788;2023-02-18T03:13:43;17.40;;;16.90;;
908;SDS011;441;51.192;6.788;2023-02-18T03:16:22;17.80;;;17.20;;
908;SDS011;441;51.192;6.788;2023-02-18T03:18:55;17.57;;;17.07;;
908;SDS011;441;51.192;6.788;2023-02-18T03:21:28;18.07;;;17.57;;
908;SDS011;441;51.192;6.788;2023-02-18T03:24:01;18.10;;;17.60;;
908;SDS011;441;51.192;6.788;2023-02-18T03:26:31;18.30;;;17.70;;
908;SDS011;441;51.192;6.788;2023-02-18T03:29:01;19.40;;;18.80;;
908;SDS011;441;51.192;6.788;2023-02-18T03:31:31;17.93;;;17.43;;
908;SDS011;441;51.192;6.788;2023-02-18T03:34:03;18.80;;;18.23;;
908;SDS011;441;51.192;6.788;2023-02-18T03:36:36;19.17;;;18.57;;
908;SDS011;441;51.192;6.788;2023-02-18T03:39:04;18.50;;;17.80;;
908;SDS011;441;51.192;6.788;2023-02-18T03:41:34;17.97;;;17.47;;
908;SDS011;441;51.192;6.788;2023-02-18T03:44:03;17.40;;;16.90;;
908;SDS011;441;51.192;6.788;2023-02-18T03:46:31;18.07;;;17.57;;
908;SDS011;441;51.192;6.788;2023-02-18T03:49:00;18.07;;;17.57;;
908;SDS011;441;51.192;6.788;2023-02-18T03:51:27;17.83;;;17.33;;
908;SDS011;441;51.192;6.788;2023-02-18T03:53:56;17.97;;;17.47;;
908;SDS011;441;51.192;6.788;2023-02-18T03:56:23;17.90;;;17.30;;
908;SDS011;441;51.192;6.788;2023-02-18T03:58:50;18.23;;;17.73;;
908;SDS011;441;51.192;6.788;2023-02-18T04:01:16;18.43;;;17.83;;
908;SDS011;441;51.192;6.788;2023-02-18T04:03:43;18.77;;;18.17;;
908;SDS011;441;51.192;6.788;2023-02-18T04:06:10;18.70;;;18.20;;
908;SDS011;441;51.192;6.788;2023-02-18T04:08:37;19.57;;;18.83;;
908;SDS011;441;51.192;6.788;2023-02-18T04:11:05;18.13;;;17.53;;
908;SDS011;441;51.192;6.788;2023-02-18T04:13:32;18.17;;;17.60;;
908;SDS011;441;51.192;6.788;2023-02-18T04:15:59;18.50;;;17.90;;
908;SDS011;441;51.192;6.788;2023-02-18T04:18:25;19.17;;;18.57;;
908;SDS011;441;51.192;6.788;2023-02-18T04:20:52;18.83;;;18.23;;
908;SDS011;441;51.192;6.788;2023-02-18T04:23:19;18.10;;;17.60;;
908;SDS011;441;51.192;6.788;2023-02-18T04:25:46;17.63;;;16.90;;
908;SDS011;441;51.192;6.788;2023-02-18T04:28:15;18.50;;;17.90;;
908;SDS011;441;51.192;6.788;2023-02-18T04:30:42;19.03;;;18.43;;
908;SDS011;441;51.192;6.788;2023-02-18T04:33:09;19.37;;;18.77;;
908;SDS011;441;51.192;6.788;2023-02-18T04:35:36;18.93;;;18.40;;
908;SDS011;441;51.192;6.788;2023-02-18T04:38:05;18.00;;;17.40;;
908;SDS011;441;51.192;6.788;2023-02-18T04:40:33;17.03;;;16.53;;
908;SDS011;441;51.192;6.788;2023-02-18T04:43:00;17.53;;;17.03;;
908;SDS011;441;51.192;6.788;2023-02-18T04:45:28;17.57;;;17.07;;
908;SDS011;441;51.192;6.788;2023-02-18T04:47:55;17.20;;;16.70;;
908;SDS011;441;51.192;6.788;2023-02-18T04:50:22;17.80;;;17.30;;
908;SDS011;441;51.192;6.788;2023-02-18T04:52:49;17.80;;;17.20;;
908;SDS011;441;51.192;6.788;2023-02-18T04:55:16;17.97;;;17.40;;
908;SDS011;441;51.192;6.788;2023-02-18T04:57:43;18.70;;;18.20;;
908;SDS011;441;51.192;6.788;2023-02-18T05:00:12;19.13;;;18.63;;
908;SDS011;441;51.192;6.788;2023-02-18T05:02:42;20.27;;;19.67;;
908;SDS011;441;51.192;6.788;2023-02-18T05:05:10;20.00;;;19.40;;
908;SDS011;441;51.192;6.788;2023-02-18T05:07:37;19.30;;;18.70;;
908;SDS011;441;51.192;6.788;2023-02-18T05:10:07;19.53;;;18.93;;
908;SDS011;441;51.192;6.788;2023-02-18T05:12:34;18.30;;;17.70;;
908;SDS011;441;51.192;6.788;2023-02-18T05:15:01;18.90;;;18.33;;
908;SDS011;441;51.192;6.788;2023-02-18T05:17:28;20.37;;;19.77;;
908;SDS011;441;51.192;6.788;2023-02-18T05:19:56;19.50;;;18.90;;
908;SDS011;441;51.192;6.788;2023-02-18T05:22:23;20.30;;;19.70;;
908;SDS011;441;51.192;6.788;2023-02-18T05:24:50;20.13;;;19.47;;
908;SDS011;441;51.192;6.788;2023-02-18T05:27:17;20.27;;;19.67;;
908;SDS011;441;51.192;6.788;2023-02-18T05:29:44;18.93;;;18.43;;
908;SDS011;441;51.192;6.788;2023-02-18T05:32:11;19.73;;;19.10;;
908;SDS011;441;51.192;6.788;2023-02-18T05:34:38;20.37;;;19.67;;
908;SDS011;441;51.192;6.788;2023-02-18T05:37:07;19.57;;;18.93;;
908;SDS011;441;51.192;6.788;2023-02-18T05:39:34;20.67;;;20.00;;
908;SDS011;441;51.192;6.788;2023-02-18T05:42:01;19.73;;;19.03;;
908;SDS011;441;51.192;6.788;2023-02-18T05:44:28;19.10;;;18.50;;
908;SDS011;441;51.192;6.788;2023-02-18T05:46:58;20.00;;;19.40;;
908;SDS011;441;51.192;6.788;2023-02-18T05:49:26;19.93;;;19.33;;
908;SDS011;441;51.192;6.788;2023-02-18T05:51:54;20.80;;;20.07;;
908;SDS011;441;51.192;6.788;2023-02-18T05:54:23;20.77;;;20.07;;
908;SDS011;441;51.192;6.788;2023-02-18T05:56:50;20.43;;;19.73;;
908;SDS011;441;51.192;6.788;2023-02-18T05:59:17;20.80;;;20.10;;
908;SDS011;441;51.192;6.788;2023-02-18T06:01:44;19.67;;;19.07;;
908;SDS011;441;51.192;6.788;2023-02-18T06:04:11;19.73;;;19.10;;
908;SDS011;441;51.192;6.788;2023-02-18T06:06:39;19.87;;;19.17;;
908;SDS011;441;51.192;6.788;2023-02-18T06:09:06;19.60;;;18.90;;
908;SDS011;441;51.192;6.788;2023-02-18T06:11:35;19.80;;;19.13;;
908;SDS011;441;51.192;6.788;2023-02-18T06:14:03;19.53;;;18.83;;
908;SDS011;441;51.192;6.788;2023-02-18T06:16:30;19.40;;;18.80;;
908;SDS011;441;51.192;6.788;2023-02-18T06:18:57;20.43;;;19.63;;
908;SDS011;441;51.192;6.788;2023-02-18T06:21:24;19.47;;;18.50;;
908;SDS011;441;51.192;6.788;2023-02-18T06:23:51;19.70;;;18.80;;
908;SDS011;441;51.192;6.788;2023-02-18T06:26:18;18.70;;;17.90;;
908;SDS011;441;51.192;6.788;2023-02-18T06:28:46;22.23;;;20.43;;
908;SDS011;441;51.192;6.788;2023-02-18T06:31:13;22.47;;;20.00;;
908;SDS011;441;51.192;6.788;2023-02-18T06:33:40;21.87;;;20.77;;
908;SDS011;441;51.192;6.788;2023-02-18T06:36:07;23.07;;;21.73;;
908;SDS011;441;51.192;6.788;2023-02-18T06:38:36;18.97;;;18.17;;
908;SDS011;441;51.192;6.788;2023-02-18T06:41:04;20.47;;;19.53;;
908;SDS011;441;51.192;6.788;2023-02-18T06:43:31;21.93;;;20.40;;
908;SDS011;441;51.192;6.788;2023-02-18T06:46:00;22.57;;;21.47;;
908;SDS011;441;51.192;6.788;2023-02-18T06:48:26;21.00;;;19.97;;
908;SDS011;441;51.192;6.788;2023-02-18T06:50:55;23.63;;;22.50;;
908;SDS011;441;51.192;6.788;2023-02-18T06:53:22;25.40;;;24.17;;
908;SDS011;441;51.192;6.788;2023-02-18T06:55:49;24.10;;;22.63;;
908;SDS011;441;51.192;6.788;2023-02-18T06:58:16;20.77;;;19.63;;
908;SDS011;441;51.192;6.788;2023-02-18T07:00:44;22.87;;;22.17;;
908;SDS011;441;51.192;6.788;2023-02-18T07:03:13;25.80;;;24.60;;
908;SDS011;441;51.192;6.788;2023-02-18T07:05:40;24.27;;;23.17;;
908;SDS011;441;51.192;6.788;2023-02-18T07:08:07;24.63;;;23.73;;
908;SDS011;441;51.192;6.788;2023-02-18T07:10:34;26.00;;;24.40;;
908;SDS011;441;51.192;6.788;2023-02-18T07:13:02;23.40;;;22.27;;
908;SDS011;441;51.192;6.788;2023-02-18T07:15:29;24.57;;;23.50;;
908;SDS011;441;51.192;6.788;2023-02-18T07:17:56;24.30;;;23.50;;
908;SDS011;441;51.192;6.788;2023-02-18T07:20:24;24.73;;;23.73;;
908;SDS011;441;51.192;6.788;2023-02-18T07:22:52;24.10;;;23.23;;
908;SDS011;441;51.192;6.788;2023-02-18T07:25:19;23.03;;;22.13;;
908;SDS011;441;51.192;6.788;2023-02-18T07:27:47;23.00;;;21.90;;
908;SDS011;441;51.192;6.788;2023-02-18T07:30:14;22.80;;;22.10;;
908;SDS011;441;51.192;6.788;2023-02-18T07:32:41;21.97;;;21.00;;
908;SDS011;441;51.192;6.788;2023-02-18T07:35:09;22.77;;;21.87;;
908;SDS011;441;51.192;6.788;2023-02-18T07:37:39;22.97;;;21.90;;
908;SDS011;441;51.192;6.788;2023-02-18T07:40:09;23.40;;;22.23;;
908;SDS011;441;51.192;6.788;2023-02-18T07:42:38;22.63;;;21.83;;
908;SDS011;441;51.192;6.788;2023-02-18T07:45:05;23.53;;;22.63;;
908;SDS011;441;51.192;6.788;2023-02-18T07:47:33;23.60;;;22.80;;
908;SDS011;441;51.192;6.788;2023-02-18T07:50:00;22.73;;;21.93;;
908;SDS011;441;51.192;6.788;2023-02-18T07:52:27;21.37;;;20.67;;
908;SDS011;441;51.192;6.788;2023-02-18T07:54:55;21.83;;;21.03;;
908;SDS011;441;51.192;6.788;2023-02-18T07:57:22;21.60;;;20.90;;
908;SDS011;441;51.192;6.788;2023-02-18T07:59:49;21.90;;;21.20;;
908;SDS011;441;51.192;6.788;2023-02-18T08:02:16;22.93;;;22.13;;
908;SDS011;441;51.192;6.788;2023-02-18T08:04:44;21.80;;;21.10;;
908;SDS011;441;51.192;6.788;2023-02-18T08:07:11;22.90;;;22.10;;
908;SDS011;441;51.192;6.788;2023-02-18T08:09:39;22.30;;;21.40;;
908;SDS011;441;51.192;6.788;2023-02-18T08:12:08;21.23;;;20.33;;
908;SDS011;441;51.192;6.788;2023-02-18T08:14:35;21.77;;;21.07;;
908;SDS011;441;51.192;6.788;2023-02-18T08:17:02;22.37;;;21.57;;
908;SDS011;441;51.192;6.788;2023-02-18T08:19:28;22.27;;;21.17;;
908;SDS011;441;51.192;6.788;2023-02-18T08:21:55;20.63;;;19.97;;
908;SDS011;441;51.192;6.788;2023-02-18T08:24:26;21.57;;;20.70;;
908;SDS011;441;51.192;6.788;2023-02-18T08:26:53;25.40;;;24.53;;
908;SDS011;441;51.192;6.788;2023-02-18T08:29:21;24.97;;;23.87;;
908;SDS011;441;51.192;6.788;2023-02-18T08:31:48;24.30;;;23.40;;
908;SDS011;441;51.192;6.788;2023-02-18T08:34:16;22.20;;;21.40;;
908;SDS011;441;51.192;6.788;2023-02-18T08:36:43;23.40;;;22.60;;
908;SDS011;441;51.192;6.788;2023-02-18T08:39:10;22.57;;;21.87;;
908;SDS011;441;51.192;6.788;2023-02-18T08:41:37;22.80;;;21.97;;
908;SDS011;441;51.192;6.788;2023-02-18T08:44:04;22.67;;;21.87;;
908;SDS011;441;51.192;6.788;2023-02-18T08:46:33;21.23;;;20.47;;
908;SDS011;441;51.192;6.788;2023-02-18T08:49:00;21.27;;;20.57;;
908;SDS011;441;51.192;6.788;2023-02-18T08:51:28;21.90;;;21.20;;
908;SDS011;441;51.192;6.788;2023-02-18T08:53:56;23.93;;;23.13;;
908;SDS011;441;51.192;6.788;2023-02-18T08:56:23;24.37;;;23.57;;
908;SDS011;441;51.192;6.788;2023-02-18T08:58:50;22.93;;;22.13;;
908;SDS011;441;51.192;6.788;2023-02-18T09:01:17;21.40;;;20.70;;
908;SDS011;441;51.192;6.788;2023-02-18T09:03:46;22.53;;;21.83;;
908;SDS011;441;51.192;6.788;2023-02-18T09:06:13;22.93;;;22.13;;
908;SDS011;441;51.192;6.788;2023-02-18T09:08:40;21.40;;;20.60;;
908;SDS011;441;51.192;6.788;2023-02-18T09:11:07;21.57;;;20.87;;
908;SDS011;441;51.192;6.788;2023-02-18T09:13:34;21.73;;;21.03;;
908;SDS011;441;51.192;6.788;2023-02-18T09:16:02;22.40;;;21.70;;
908;SDS011;441;51.192;6.788;2023-02-18T09:18:32;23.10;;;22.30;;
908;SDS011;441;51.192;6.788;2023-02-18T09:21:02;21.30;;;20.70;;
908;SDS011;441;51.192;6.788;2023-02-18T09:23:31;21.50;;;20.80;;
908;SDS011;441;51.192;6.788;2023-02-18T09:25:58;25.10;;;24.10;;
908;SDS011;441;51.192;6.788;2023-02-18T09:28:26;23.17;;;22.37;;
908;SDS011;441;51.192;6.788;2023-02-18T09:30:53;21.37;;;20.67;;
908;SDS011;441;51.192;6.788;2023-02-18T09:33:20;23.60;;;22.80;;
908;SDS011;441;51.192;6.788;2023-02-18T09:35:47;23.10;;;22.40;;
908;SDS011;441;51.192;6.788;2023-02-18T09:38:16;23.40;;;22.60;;
908;SDS011;441;51.192;6.788;2023-02-18T09:40:45;22.70;;;21.90;;
908;SDS011;441;51.192;6.788;2023-02-18T09:43:17;19.83;;;19.02;;
908;SDS011;441;51.192;6.788;2023-02-18T09:45:50;22.60;;;21.80;;
908;SDS011;441;51.192;6.788;2023-02-18T09:48:19;21.27;;;20.47;;
908;SDS011;441;51.192;6.788;2023-02-18T09:50:52;21.90;;;21.20;;
908;SDS011;441;51.192;6.788;2023-02-18T09:53:21;23.17;;;22.23;;
908;SDS011;441;51.192;6.788;2023-02-18T09:55:50;23.40;;;22.40;;
908;SDS011;441;51.192;6.788;2023-02-18T09:58:18;23.63;;;22.83;;
908;SDS011;441;51.192;6.788;2023-02-18T10:00:52;22.27;;;21.47;;
908;SDS011;441;51.192;6.788;2023-02-18T10:03:24;22.50;;;21.70;;
908;SDS011;441;51.192;6.788;2023-02-18T10:05:54;23.47;;;22.77;;
908;SDS011;441;51.192;6.788;2023-02-18T10:08:25;21.77;;;21.07;;
908;SDS011;441;51.192;6.788;2023-02-18T10:10:54;20.55;;;19.85;;
908;SDS011;441;51.192;6.788;2023-02-18T10:13:22;24.03;;;23.00;;
908;SDS011;441;51.192;6.788;2023-02-18T10:15:50;22.97;;;22.13;;
908;SDS011;441;51.192;6.788;2023-02-18T10:18:24;22.50;;;21.70;;
908;SDS011;441;51.192;6.788;2023-02-18T10:20:56;22.10;;;21.00;;
908;SDS011;441;51.192;6.788;2023-02-18T10:23:29;24.90;;;23.60;;
908;SDS011;441;51.192;6.788;2023-02-18T10:25:58;23.93;;;22.93;;
908;SDS011;441;51.192;6.788;2023-02-18T10:28:30;22.00;;;21.20;;
908;SDS011;441;51.192;6.788;2023-02-18T10:30:59;22.40;;;21.70;;
908;SDS011;441;51.192;6.788;2023-02-18T10:33:32;23.33;;;22.50;;
908;SDS011;441;51.192;6.788;2023-02-18T10:36:06;23.33;;;22.50;;
908;SDS011;441;51.192;6.788;2023-02-18T10:38:47;21.83;;;21.10;;
908;SDS011;441;51.192;6.788;2023-02-18T10:41:45;22.00;;;21.20;;
908;SDS011;441;51.192;6.788;2023-02-18T10:44:20;22.53;;;21.73;;
908;SDS011;441;51.192;6.788;2023-02-18T10:46:56;23.50;;;22.60;;
908;SDS011;441;51.192;6.788;2023-02-18T10:49:33;18.58;;;17.98;;
908;SDS011;441;51.192;6.788;2023-02-18T10:52:13;21.30;;;20.60;;
908;SDS011;441;51.192;6.788;2023-02-18T10:54:49;21.13;;;20.33;;
908;SDS011;441;51.192;6.788;2023-02-18T10:57:18;21.97;;;21.27;;
908;SDS011;441;51.192;6.788;2023-02-18T10:59:53;23.67;;;22.57;;
908;SDS011;441;51.192;6.788;2023-02-18T11:02:23;22.47;;;21.60;;
908;SDS011;441;51.192;6.788;2023-02-18T11:04:54;22.20;;;21.50;;
908;SDS011;441;51.192;6.788;2023-02-18T11:07:24;23.20;;;22.40;;
908;SDS011;441;51.192;6.788;2023-02-18T11:09:56;23.87;;;22.97;;
908;SDS011;441;51.192;6.788;2023-02-18T11:12:25;23.40;;;22.70;;
908;SDS011;441;51.192;6.788;2023-02-18T11:15:03;23.83;;;23.03;;
908;SDS011;441;51.192;6.788;2023-02-18T11:17:33;25.00;;;24.10;;
908;SDS011;441;51.192;6.788;2023-02-18T11:20:04;23.23;;;22.43;;
908;SDS011;441;51.192;6.788;2023-02-18T11:22:47;22.07;;;21.17;;
908;SDS011;441;51.192;6.788;2023-02-18T11:25:19;22.47;;;21.70;;
908;SDS011;441;51.192;6.788;2023-02-18T11:27:48;22.40;;;21.60;;
908;SDS011;441;51.192;6.788;2023-02-18T11:30:18;22.60;;;21.67;;
908;SDS011;441;51.192;6.788;2023-02-18T11:32:46;23.20;;;22.43;;
908;SDS011;441;51.192;6.788;2023-02-18T11:35:16;24.67;;;23.70;;
908;SDS011;441;51.192;6.788;2023-02-18T11:37:44;22.30;;;21.53;;
908;SDS011;441;51.192;6.788;2023-02-18T11:40:19;22.33;;;21.53;;
908;SDS011;441;51.192;6.788;2023-02-18T11:42:48;22.20;;;21.40;;
908;SDS011;441;51.192;6.788;2023-02-18T11:45:25;22.43;;;21.73;;
908;SDS011;441;51.192;6.788;2023-02-18T11:47:57;20.97;;;20.27;;
908;SDS011;441;51.192;6.788;2023-02-18T11:50:25;22.20;;;21.30;;
908;SDS011;441;51.192;6.788;2023-02-18T11:52:55;22.87;;;22.13;;
908;SDS011;441;51.192;6.788;2023-02-18T11:55:25;22.30;;;21.60;;
908;SDS011;441;51.192;6.788;2023-02-18T11:57:55;21.90;;;21.03;;
908;SDS011;441;51.192;6.788;2023-02-18T12:00:29;22.97;;;21.90;;
908;SDS011;441;51.192;6.788;2023-02-18T12:03:03;24.53;;;23.57;;
908;SDS011;441;51.192;6.788;2023-02-18T12:05:38;23.73;;;22.97;;
908;SDS011;441;51.192;6.788;2023-02-18T12:08:09;23.27;;;22.57;;
908;SDS011;441;51.192;6.788;2023-02-18T12:10:45;22.10;;;21.37;;
908;SDS011;441;51.192;6.788;2023-02-18T12:13:17;22.83;;;22.03;;
908;SDS011;441;51.192;6.788;2023-02-18T12:15:51;22.20;;;21.50;;
908;SDS011;441;51.192;6.788;2023-02-18T12:18:38;22.10;;;21.40;;
908;SDS011;441;51.192;6.788;2023-02-18T12:21:22;22.67;;;21.97;;
908;SDS011;441;51.192;6.788;2023-02-18T12:24:10;21.90;;;21.20;;
908;SDS011;441;51.192;6.788;2023-02-18T12:26:47;20.50;;;19.70;;
908;SDS011;441;51.192;6.788;2023-02-18T12:32:12;24.00;;;23.20;;
908;SDS011;441;51.192;6.788;2023-02-18T12:34:49;22.50;;;21.60;;
908;SDS011;441;51.192;6.788;2023-02-18T12:37:31;22.70;;;21.90;;
908;SDS011;441;51.192;6.788;2023-02-18T12:40:24;22.90;;;22.20;;
908;SDS011;441;51.192;6.788;2023-02-18T12:43:08;22.90;;;22.20;;
908;SDS011;441;51.192;6.788;2023-02-18T12:45:55;23.40;;;22.50;;
908;SDS011;441;51.192;6.788;2023-02-18T12:48:36;22.60;;;21.70;;
908;SDS011;441;51.192;6.788;2023-02-18T12:51:28;24.60;;;23.70;;
908;SDS011;441;51.192;6.788;2023-02-18T12:54:08;23.57;;;22.67;;
908;SDS011;441;51.192;6.788;2023-02-18T12:56:51;22.70;;;22.00;;
908;SDS011;441;51.192;6.788;2023-02-18T12:59:44;23.10;;;22.40;;
908;SDS011;441;51.192;6.788;2023-02-18T13:02:34;20.60;;;20.00;;
908;SDS011;441;51.192;6.788;2023-02-18T13:05:17;21.23;;;20.53;;
908;SDS011;441;51.192;6.788;2023-02-18T13:07:55;21.50;;;20.80;;
908;SDS011;441;51.192;6.788;2023-02-18T13:10:43;20.37;;;19.77;;
908;SDS011;441;51.192;6.788;2023-02-18T13:13:24;20.67;;;19.90;;
908;SDS011;441;51.192;6.788;2023-02-18T13:15:57;21.93;;;21.23;;
908;SDS011;441;51.192;6.788;2023-02-18T13:18:27;22.30;;;21.50;;
908;SDS011;441;51.192;6.788;2023-02-18T13:20:59;24.07;;;23.27;;
908;SDS011;441;51.192;6.788;2023-02-18T13:23:30;24.27;;;23.47;;
908;SDS011;441;51.192;6.788;2023-02-18T13:25:59;24.00;;;23.20;;
908;SDS011;441;51.192;6.788;2023-02-18T13:28:31;22.37;;;21.67;;
908;SDS011;441;51.192;6.788;2023-02-18T13:31:14;22.53;;;21.73;;
908;SDS011;441;51.192;6.788;2023-02-18T13:33:52;23.00;;;22.10;;
908;SDS011;441;51.192;6.788;2023-02-18T13:36:31;22.90;;;22.20;;
908;SDS011;441;51.192;6.788;2023-02-18T13:39:05;21.93;;;21.23;;
908;SDS011;441;51.192;6.788;2023-02-18T13:41:35;23.77;;;23.00;;
908;SDS011;441;51.192;6.788;2023-02-18T13:44:07;22.53;;;21.53;;
908;SDS011;441;51.192;6.788;2023-02-18T13:46:47;22.63;;;21.93;;
908;SDS011;441;51.192;6.788;2023-02-18T13:49:17;22.57;;;21.87;;
908;SDS011;441;51.192;6.788;2023-02-18T13:51:47;21.93;;;21.23;;
908;SDS011;441;51.192;6.788;2023-02-18T13:54:17;22.17;;;21.47;;
908;SDS011;441;51.192;6.788;2023-02-18T13:56:50;24.20;;;23.40;;
908;SDS011;441;51.192;6.788;2023-02-18T13:59:21;23.03;;;22.23;;
908;SDS011;441;51.192;6.788;2023-02-18T14:01:53;22.90;;;22.20;;
908;SDS011;441;51.192;6.788;2023-02-18T14:04:36;20.93;;;20.23;;
908;SDS011;441;51.192;6.788;2023-02-18T14:10:23;23.40;;;22.70;;
908;SDS011;441;51.192;6.788;2023-02-18T14:13:01;22.20;;;21.43;;
908;SDS011;441;51.192;6.788;2023-02-18T14:15:52;23.50;;;22.70;;
908;SDS011;441;51.192;6.788;2023-02-18T14:21:37;22.70;;;21.90;;
908;SDS011;441;51.192;6.788;2023-02-18T14:24:06;23.70;;;22.90;;
908;SDS011;441;51.192;6.788;2023-02-18T14:26:36;23.40;;;22.47;;
908;SDS011;441;51.192;6.788;2023-02-18T14:29:07;22.97;;;22.27;;
908;SDS011;441;51.192;6.788;2023-02-18T14:31:47;24.27;;;23.47;;
908;SDS011;441;51.192;6.788;2023-02-18T14:37:28;24.07;;;23.30;;
908;SDS011;441;51.192;6.788;2023-02-18T14:40:27;23.93;;;23.13;;
908;SDS011;441;51.192;6.788;2023-02-18T14:43:23;22.60;;;21.90;;
908;SDS011;441;51.192;6.788;2023-02-18T14:46:07;22.10;;;21.40;;
908;SDS011;441;51.192;6.788;2023-02-18T14:51:50;23.93;;;23.03;;
908;SDS011;441;51.192;6.788;2023-02-18T14:54:19;22.10;;;21.40;;
908;SDS011;441;51.192;6.788;2023-02-18T14:56:51;22.40;;;21.70;;
908;SDS011;441;51.192;6.788;2023-02-18T14:59:22;22.10;;;21.40;;
908;SDS011;441;51.192;6.788;2023-02-18T15:01:53;23.93;;;23.20;;
908;SDS011;441;51.192;6.788;2023-02-18T15:04:20;23.47;;;22.67;;
908;SDS011;441;51.192;6.788;2023-02-18T15:06:58;24.20;;;23.40;;
908;SDS011;441;51.192;6.788;2023-02-18T15:09:26;24.40;;;23.60;;
908;SDS011;441;51.192;6.788;2023-02-18T15:11:55;22.67;;;21.97;;
908;SDS011;441;51.192;6.788;2023-02-18T15:14:24;23.20;;;22.40;;
908;SDS011;441;51.192;6.788;2023-02-18T15:16:54;23.37;;;22.67;;
908;SDS011;441;51.192;6.788;2023-02-18T15:19:23;24.10;;;23.20;;
908;SDS011;441;51.192;6.788;2023-02-18T15:21:52;24.50;;;23.70;;
908;SDS011;441;51.192;6.788;2023-02-18T15:24:26;21.87;;;21.17;;
908;SDS011;441;51.192;6.788;2023-02-18T15:26:57;24.83;;;24.03;;
908;SDS011;441;51.192;6.788;2023-02-18T15:29:26;24.73;;;23.83;;
908;SDS011;441;51.192;6.788;2023-02-18T15:31:54;21.47;;;20.87;;
908;SDS011;441;51.192;6.788;2023-02-18T15:34:30;23.00;;;22.23;;
908;SDS011;441;51.192;6.788;2023-02-18T15:37:01;21.93;;;21.23;;
908;SDS011;441;51.192;6.788;2023-02-18T15:39:30;23.00;;;22.30;;
908;SDS011;441;51.192;6.788;2023-02-18T15:41:58;23.00;;;22.20;;
908;SDS011;441;51.192;6.788;2023-02-18T15:44:28;23.50;;;22.80;;
908;SDS011;441;51.192;6.788;2023-02-18T15:46:58;27.00;;;26.00;;
908;SDS011;441;51.192;6.788;2023-02-18T15:49:26;23.80;;;23.00;;
908;SDS011;441;51.192;6.788;2023-02-18T15:51:55;24.60;;;23.80;;
908;SDS011;441;51.192;6.788;2023-02-18T15:54:24;24.10;;;23.40;;
908;SDS011;441;51.192;6.788;2023-02-18T15:56:54;23.80;;;23.00;;
908;SDS011;441;51.192;6.788;2023-02-18T15:59:26;23.30;;;22.60;;
908;SDS011;441;51.192;6.788;2023-02-18T16:01:55;22.63;;;21.93;;